sensor_id;sensor_type;location;lat;lon;timestamp;temperature;humidity
19000;DHT22;9633;50.980;13.850;2023-02-17T20:55:23;11.90;99.90
19000;DHT22;9633;50.980;13.850;2023-02-17T20:56:59;11.90;99.90
19000;DHT22;9633;50.980;13.850;2023-02-17T22:21:06;10.40;99.90
19000;DHT22;9633;50.980;13.850;2023-02-17T22:22:39;10.20;99.90
19000;DHT22;9633;50.980;13.850;2023-02-17T22:24:14;10.00;99.90
19000;DHT22;9633;50.980;13.850;2023-02-17T22:25:47;9.80;99.90
19000;DHT22;9633;50.980;13.850;2023-02-17T22:27:20;9.60;99.90
19000;DHT22;9633;50.980;13.850;2023-02-17T22:28:54;9.60;99.90
19000;DHT22;9633;50.980;13.850;2023-02-17T22:30:27;9.50;99.90
19000;DHT22;9633;50.980;13.850;2023-02-17T22:32:00;9.50;99.90
19000;DHT22;9633;50.980;13.850;2023-02-17T22:33:34;9.40;99.90
19000;DHT22;9633;50.980;13.850;2023-02-17T22:35:07;9.40;99.90
19000;DHT22;9633;50.980;13.850;2023-02-17T22:36:41;9.30;99.90
19000;DHT22;9633;50.980;13.850;2023-02-17T22:38:14;9.30;99.90
19000;DHT22;9633;50.980;13.850;2023-02-17T22:39:51;9.30;99.90
19000;DHT22;9633;50.980;13.850;2023-02-17T22:41:24;9.20;99.90
19000;DHT22;9633;50.980;13.850;2023-02-17T22:42:58;9.20;99.90
19000;DHT22;9633;50.980;13.850;2023-02-17T22:44:31;9.20;99.90
19000;DHT22;9633;50.980;13.850;2023-02-17T22:46:04;9.10;99.90
19000;DHT22;9633;50.980;13.850;2023-02-17T22:47:38;9.10;99.90
19000;DHT22;9633;50.980;13.850;2023-02-17T22:49:11;9.10;99.90
19000;DHT22;9633;50.980;13.850;2023-02-17T22:50:44;9.00;99.90
19000;DHT22;9633;50.980;13.850;2023-02-17T22:52:18;9.00;99.90
19000;DHT22;9633;50.980;13.850;2023-02-17T22:53:51;9.00;99.90
19000;DHT22;9633;50.980;13.850;2023-02-17T22:55:26;9.10;99.90
19000;DHT22;9633;50.980;13.850;2023-02-17T22:56:59;9.00;99.90
19000;DHT22;9633;50.980;13.850;2023-02-17T22:58:33;9.00;99.90
19000;DHT22;9633;50.980;13.850;2023-02-17T23:00:07;9.00;99.90
19000;DHT22;9633;50.980;13.850;2023-02-17T23:01:41;9.00;99.90
19000;DHT22;9633;50.980;13.850;2023-02-17T23:03:14;9.00;99.90
19000;DHT22;9633;50.980;13.850;2023-02-17T23:04:48;9.10;99.90
19000;DHT22;9633;50.980;13.850;2023-02-17T23:06:24;9.10;99.90
19000;DHT22;9633;50.980;13.850;2023-02-17T23:07:57;9.20;99.90
19000;DHT22;9633;50.980;13.850;2023-02-17T23:09:30;9.20;99.90
19000;DHT22;9633;50.980;13.850;2023-02-17T23:11:06;9.20;99.90
19000;DHT22;9633;50.980;13.850;2023-02-17T23:12:38;9.30;99.90
19000;DHT22;9633;50.980;13.850;2023-02-17T23:14:12;9.30;99.90
19000;DHT22;9633;50.980;13.850;2023-02-17T23:15:45;9.30;99.90
19000;DHT22;9633;50.980;13.850;2023-02-17T23:17:19;9.30;99.90
19000;DHT22;9633;50.980;13.850;2023-02-17T23:18:52;9.30;99.90
19000;DHT22;9633;50.980;13.850;2023-02-17T23:20:25;9.30;99.90
19000;DHT22;9633;50.980;13.850;2023-02-17T23:21:59;9.30;99.90
19000;DHT22;9633;50.980;13.850;2023-02-17T23:23:33;9.30;99.90
19000;DHT22;9633;50.980;13.850;2023-02-17T23:25:06;9.30;99.90
19000;DHT22;9633;50.980;13.850;2023-02-17T23:26:40;9.30;99.90
19000;DHT22;9633;50.980;13.850;2023-02-17T23:28:14;9.30;99.90
19000;DHT22;9633;50.980;13.850;2023-02-17T23:29:47;9.30;99.90
19000;DHT22;9633;50.980;13.850;2023-02-17T23:31:20;9.30;99.90
19000;DHT22;9633;50.980;13.850;2023-02-17T23:32:52;9.30;99.90
19000;DHT22;9633;50.980;13.850;2023-02-17T23:34:26;9.40;99.90
19000;DHT22;9633;50.980;13.850;2023-02-17T23:36:02;9.30;99.90
19000;DHT22;9633;50.980;13.850;2023-02-17T23:37:36;9.30;99.90
19000;DHT22;9633;50.980;13.850;2023-02-17T23:39:09;9.30;99.90
19000;DHT22;9633;50.980;13.850;2023-02-17T23:40:46;9.30;99.90
19000;DHT22;9633;50.980;13.850;2023-02-17T23:42:21;9.30;99.90
19000;DHT22;9633;50.980;13.850;2023-02-17T23:43:54;9.30;99.90
19000;DHT22;9633;50.980;13.850;2023-02-17T23:45:27;9.30;99.90
19000;DHT22;9633;50.980;13.850;2023-02-17T23:47:01;9.30;99.90
19000;DHT22;9633;50.980;13.850;2023-02-17T23:48:35;9.30;99.90
19000;DHT22;9633;50.980;13.850;2023-02-17T23:50:08;9.40;99.90
19000;DHT22;9633;50.980;13.850;2023-02-17T23:51:42;9.30;99.90
19000;DHT22;9633;50.980;13.850;2023-02-17T23:53:15;9.30;99.90
19000;DHT22;9633;50.980;13.850;2023-02-17T23:54:47;9.30;99.90
19000;DHT22;9633;50.980;13.850;2023-02-17T23:56:23;9.30;99.90
19000;DHT22;9633;50.980;13.850;2023-02-17T23:57:58;9.30;99.90
19000;DHT22;9633;50.980;13.850;2023-02-17T23:59:32;9.30;99.90
